Time;durP1;ratioP1;P1;durP2;ratioP2;P2;SDS_P1;SDS_P2;PMS_P1;PMS_P2;Temp;Humidity;BMP_temperature;BMP_pressure;BME280_temperature;BME280_humidity;BME280_pressure;Samples;Min_cycle;Max_cycle;Signal;HPM_P1;HPM_P2
2021/11/19 00:01:18;;;;;;;12.20;7.28;;;9.00;70.40;;;;;;4403468;29;20061;-69
2021/11/19 00:03:35;;;;;;;15.68;7.38;;;9.00;70.30;;;;;;4403072;29;20132;-69
2021/11/19 00:05:55;;;;;;;13.07;7.53;;;9.00;70.20;;;;;;4404852;29;20499;-69
2021/11/19 00:08:13;;;;;;;14.98;7.25;;;9.00;70.20;;;;;;4404334;29;20497;-69
2021/11/19 00:10:30;;;;;;;15.20;7.60;;;9.00;70.20;;;;;;4403484;29;20494;-69
2021/11/19 00:12:47;;;;;;;13.05;7.40;;;9.00;70.20;;;;;;4404230;29;20058;-70
2021/11/19 00:15:04;;;;;;;15.18;7.25;;;9.00;70.10;;;;;;4404778;29;20498;-71
2021/11/19 00:17:20;;;;;;;14.68;8.13;;;9.10;70.10;;;;;;4402814;29;20131;-71
2021/11/19 00:19:40;;;;;;;13.85;8.35;;;9.00;70.00;;;;;;4403273;29;20491;-70
2021/11/19 00:21:58;;;;;;;12.43;6.70;;;9.10;70.00;;;;;;4402992;29;20077;-71
2021/11/19 00:24:15;;;;;;;14.27;8.02;;;9.00;69.80;;;;;;4404592;29;20108;-70
2021/11/19 00:26:35;;;;;;;17.13;8.20;;;9.00;69.90;;;;;;4402892;29;20082;-71
2021/11/19 00:28:52;;;;;;;12.90;7.63;;;9.10;69.90;;;;;;4404341;29;20149;-71
2021/11/19 00:31:09;;;;;;;14.55;7.30;;;9.10;69.90;;;;;;4402850;29;20050;-71
2021/11/19 00:33:26;;;;;;;12.98;7.88;;;9.10;69.90;;;;;;4403057;29;20080;-71
2021/11/19 00:35:45;;;;;;;15.48;7.95;;;9.10;69.90;;;;;;4402873;29;20133;-70
2021/11/19 00:38:04;;;;;;;13.27;7.43;;;9.10;69.80;;;;;;4402880;29;20047;-70
2021/11/19 00:40:24;;;;;;;15.18;7.65;;;9.10;70.50;;;;;;4404084;29;20414;-70
2021/11/19 00:42:41;;;;;;;11.27;6.88;;;9.10;69.70;;;;;;4404137;29;20073;-70
2021/11/19 00:44:57;;;;;;;16.50;8.25;;;9.10;69.40;;;;;;4402977;29;20055;-70
2021/11/19 00:47:14;;;;;;;15.15;7.30;;;9.20;69.40;;;;;;4403778;29;20419;-70
2021/11/19 00:49:33;;;;;;;17.13;6.90;;;9.20;69.40;;;;;;4404637;29;20126;-71
2021/11/19 00:51:53;;;;;;;13.50;7.57;;;9.20;69.40;;;;;;4402502;29;20055;-70
2021/11/19 00:54:13;;;;;;;13.38;7.80;;;9.20;69.20;;;;;;4402896;29;20055;-70
2021/11/19 00:56:31;;;;;;;12.18;7.38;;;9.20;69.20;;;;;;4403627;29;20082;-69
2021/11/19 00:58:50;;;;;;;13.35;7.50;;;9.20;68.90;;;;;;4402753;29;20084;-70
2021/11/19 01:01:14;;;;;;;17.52;7.22;;;9.20;68.90;;;;;;4402447;29;20150;-70
2021/11/19 01:03:32;;;;;;;14.52;7.55;;;9.20;69.00;;;;;;4401341;29;20066;-70
2021/11/19 01:05:51;;;;;;;17.27;8.27;;;9.20;68.90;;;;;;4402432;29;20055;-70
2021/11/19 01:08:08;;;;;;;15.20;8.23;;;9.20;68.20;;;;;;4403030;29;20108;-69
2021/11/19 01:10:29;;;;;;;15.73;7.57;;;9.20;68.70;;;;;;4403372;29;20050;-70
2021/11/19 01:12:46;;;;;;;13.82;7.80;;;9.20;68.80;;;;;;4403865;29;20108;-68
2021/11/19 01:15:10;;;;;;;14.02;8.05;;;9.30;68.70;;;;;;4405629;29;20073;-69
2021/11/19 01:17:33;;;;;;;12.20;6.80;;;9.30;68.60;;;;;;4403564;29;20054;-69
2021/11/19 01:19:57;;;;;;;14.40;7.60;;;9.30;68.30;;;;;;4404246;29;20528;-70
2021/11/19 01:22:18;;;;;;;15.73;7.75;;;9.30;68.30;;;;;;4404531;29;20093;-70
2021/11/19 01:24:38;;;;;;;12.32;7.13;;;9.30;68.20;;;;;;4406105;29;20127;-68
2021/11/19 01:26:57;;;;;;;13.38;7.20;;;9.40;68.10;;;;;;4405614;29;20054;-69
2021/11/19 01:29:16;;;;;;;13.13;7.13;;;9.40;67.90;;;;;;4405819;29;20078;-70
2021/11/19 01:31:39;;;;;;;12.75;6.78;;;9.40;67.80;;;;;;4405595;29;20062;-70
2021/11/19 01:34:03;;;;;;;15.32;7.80;;;9.40;67.80;;;;;;4405789;29;20103;-70
2021/11/19 01:36:26;;;;;;;14.75;7.38;;;9.40;67.60;;;;;;4405656;29;20061;-69
2021/11/19 01:38:57;;;;;;;13.32;7.28;;;9.40;67.40;;;;;;4405786;29;20537;-70
2021/11/19 01:41:43;;;;;;;13.13;6.85;;;9.40;67.10;;;;;;4402917;29;20552;-69
2021/11/19 01:44:02;;;;;;;11.63;6.68;;;9.40;67.00;;;;;;4404439;29;20579;-69
2021/11/19 01:46:24;;;;;;;12.32;6.30;;;9.40;66.80;;;;;;4405645;29;20515;-69
2021/11/19 01:48:44;;;;;;;13.20;7.07;;;9.40;66.50;;;;;;4405700;29;20082;-69
2021/11/19 01:51:08;;;;;;;13.32;7.25;;;9.40;66.50;;;;;;4405100;29;20116;-70
2021/11/19 01:53:31;;;;;;;11.98;6.53;;;9.40;66.20;;;;;;4405382;29;20125;-69
2021/11/19 01:55:54;;;;;;;12.57;6.45;;;9.40;66.40;;;;;;4405443;29;20074;-69
2021/11/19 01:58:14;;;;;;;12.98;7.05;;;9.50;66.30;;;;;;4405268;29;20043;-69
2021/11/19 02:00:36;;;;;;;14.50;6.57;;;9.50;66.10;;;;;;4404322;29;20054;-68
2021/11/19 02:02:56;;;;;;;10.93;6.47;;;9.50;66.00;;;;;;4403427;29;20086;-70
2021/11/19 02:05:22;;;;;;;11.23;6.78;;;9.60;66.00;;;;;;4402696;29;20141;-69
2021/11/19 02:07:45;;;;;;;12.63;6.53;;;9.60;65.80;;;;;;4403487;29;20059;-69
2021/11/19 02:10:11;;;;;;;12.23;6.85;;;9.60;65.60;;;;;;4402929;29;20091;-70
2021/11/19 02:12:38;;;;;;;11.05;6.80;;;9.60;65.40;;;;;;4403369;29;20047;-69
2021/11/19 02:15:09;;;;;;;12.05;6.60;;;9.60;65.40;;;;;;4402949;29;20125;-69
2021/11/19 02:17:30;;;;;;;14.55;7.00;;;9.60;65.40;;;;;;4405262;29;20534;-69
2021/11/19 02:19:52;;;;;;;13.32;7.07;;;9.70;65.40;;;;;;4405241;29;20054;-69
2021/11/19 02:22:17;;;;;;;11.20;6.65;;;9.70;66.00;;;;;;4403996;29;20412;-69
2021/11/19 02:24:38;;;;;;;10.43;6.65;;;9.70;65.20;;;;;;4405141;29;20612;-69
2021/11/19 02:27:01;;;;;;;13.07;7.53;;;9.70;65.50;;;;;;4404854;29;20054;-70
2021/11/19 02:29:21;;;;;;;14.25;7.50;;;9.70;65.70;;;;;;4405192;29;20069;-70
2021/11/19 02:31:48;;;;;;;13.82;7.90;;;9.80;65.80;;;;;;4404592;29;20054;-69
2021/11/19 02:34:07;;;;;;;13.35;7.85;;;9.80;65.60;;;;;;4404995;29;20053;-69
2021/11/19 02:36:35;;;;;;;13.85;8.07;;;9.80;66.60;;;;;;4404597;29;20134;-69
2021/11/19 02:38:55;;;;;;;14.90;8.07;;;9.80;65.90;;;;;;4405162;29;20075;-69
2021/11/19 02:41:14;;;;;;;13.02;8.63;;;9.80;65.80;;;;;;4404582;29;20051;-69
2021/11/19 02:43:35;;;;;;;14.63;7.85;;;9.80;66.80;;;;;;4404585;29;20141;-69
2021/11/19 02:45:53;;;;;;;13.75;8.02;;;9.80;66.10;;;;;;4404685;29;20128;-69
2021/11/19 02:48:13;;;;;;;13.88;8.32;;;9.80;66.10;;;;;;4404399;29;20047;-69
2021/11/19 02:50:33;;;;;;;12.07;7.78;;;9.80;66.10;;;;;;4404834;29;20051;-70
2021/11/19 02:52:52;;;;;;;14.02;8.15;;;9.80;66.20;;;;;;4404274;29;20067;-69
2021/11/19 02:55:20;;;;;;;12.98;7.80;;;9.80;66.30;;;;;;4404693;29;20051;-69
2021/11/19 02:57:38;;;;;;;14.05;7.53;;;9.80;66.40;;;;;;4404114;29;20050;-70
2021/11/19 02:59:55;;;;;;;12.98;8.15;;;9.80;66.50;;;;;;4404549;29;20078;-70
2021/11/19 03:02:15;;;;;;;13.13;7.68;;;9.80;66.50;;;;;;4404014;29;20491;-70
2021/11/19 03:04:35;;;;;;;13.43;8.07;;;9.80;66.50;;;;;;4404477;29;20067;-70
2021/11/19 03:06:55;;;;;;;11.63;7.38;;;9.70;66.50;;;;;;4419155;29;20127;-70
2021/11/19 03:09:13;;;;;;;12.70;8.10;;;9.80;66.70;;;;;;4404640;29;20438;-70
2021/11/19 03:11:29;;;;;;;15.55;8.55;;;9.70;66.60;;;;;;4404006;29;20055;-70
2021/11/19 03:13:46;;;;;;;12.13;7.50;;;9.70;66.70;;;;;;4404185;29;20062;-69
2021/11/19 03:16:04;;;;;;;12.82;7.47;;;9.80;66.80;;;;;;4404153;29;20057;-69
2021/11/19 03:18:26;;;;;;;12.32;7.90;;;9.70;66.80;;;;;;4404049;29;20130;-69
2021/11/19 03:20:46;;;;;;;14.43;7.90;;;9.80;67.00;;;;;;4404320;29;20080;-70
2021/11/19 03:23:05;;;;;;;11.52;7.30;;;9.80;66.90;;;;;;4403838;29;20079;-70
2021/11/19 03:25:25;;;;;;;13.40;7.72;;;9.80;67.00;;;;;;4404209;29;20108;-70
2021/11/19 03:27:45;;;;;;;12.38;6.93;;;9.80;67.10;;;;;;4403607;29;20256;-69
2021/11/19 03:30:17;;;;;;;13.35;7.60;;;9.80;67.10;;;;;;4404199;29;20164;-70
2021/11/19 03:32:35;;;;;;;11.52;7.25;;;9.80;67.20;;;;;;4403565;29;20526;-71
2021/11/19 03:34:55;;;;;;;12.80;8.02;;;9.80;67.10;;;;;;4404209;29;20065;-70
2021/11/19 03:37:11;;;;;;;13.27;7.72;;;9.80;67.20;;;;;;4403623;29;20047;-70
2021/11/19 03:39:32;;;;;;;12.02;7.10;;;9.80;67.20;;;;;;4403922;29;20051;-70
2021/11/19 03:41:51;;;;;;;12.77;7.50;;;9.80;67.20;;;;;;4403620;29;20131;-71
2021/11/19 03:44:15;;;;;;;14.02;7.38;;;9.90;67.30;;;;;;4403597;29;20108;-70
2021/11/19 03:46:36;;;;;;;12.82;7.45;;;9.90;67.30;;;;;;4403919;29;20059;-70
2021/11/19 03:48:52;;;;;;;13.48;7.43;;;9.90;67.30;;;;;;4403338;29;20074;-69
2021/11/19 03:51:13;;;;;;;11.07;6.18;;;9.90;67.30;;;;;;4403750;29;20050;-69
2021/11/19 03:53:30;;;;;;;12.20;7.45;;;10.00;67.30;;;;;;4403231;29;20501;-70
2021/11/19 03:55:51;;;;;;;15.35;7.50;;;9.90;67.30;;;;;;4403669;29;20100;-69
2021/11/19 03:58:08;;;;;;;16.33;7.75;;;9.90;67.30;;;;;;4403129;29;20066;-69
2021/11/19 04:00:28;;;;;;;13.10;7.72;;;10.00;67.20;;;;;;4403670;29;20304;-69
2021/11/19 04:02:45;;;;;;;14.27;8.40;;;10.00;67.30;;;;;;4403021;29;20075;-69
2021/11/19 04:05:05;;;;;;;13.48;8.05;;;9.90;67.40;;;;;;4403552;29;20545;-69
2021/11/19 04:07:23;;;;;;;14.60;8.40;;;10.00;67.30;;;;;;4402954;29;20055;-69
2021/11/19 04:09:40;;;;;;;12.48;7.93;;;9.90;67.40;;;;;;4403540;29;20066;-69
2021/11/19 04:12:02;;;;;;;14.27;8.98;;;9.90;67.40;;;;;;4403211;29;20046;-70
2021/11/19 04:14:20;;;;;;;14.63;9.05;;;9.90;67.60;;;;;;4403396;29;20498;-69
2021/11/19 04:16:43;;;;;;;16.67;9.25;;;9.90;67.60;;;;;;4403316;29;20074;-70
2021/11/19 04:19:00;;;;;;;15.73;9.07;;;9.90;67.70;;;;;;4402983;29;20055;-70
2021/11/19 04:21:18;;;;;;;16.05;9.65;;;9.90;67.70;;;;;;4403167;29;20257;-69
2021/11/19 04:23:35;;;;;;;16.52;9.48;;;9.90;67.80;;;;;;4402704;29;20055;-69
2021/11/19 04:25:53;;;;;;;18.85;10.18;;;9.90;67.80;;;;;;4403338;29;20057;-70
2021/11/19 04:28:12;;;;;;;16.55;10.07;;;9.80;67.80;;;;;;4402665;29;20055;-69
2021/11/19 04:30:50;;;;;;;17.73;9.93;;;9.80;68.10;;;;;;4404600;29;20070;-69
2021/11/19 04:33:08;;;;;;;19.55;11.32;;;9.80;68.20;;;;;;4417978;29;20129;-70
2021/11/19 04:35:26;;;;;;;20.50;11.45;;;9.70;68.10;;;;;;4403307;29;20061;-70
2021/11/19 04:37:44;;;;;;;19.20;11.38;;;9.70;68.30;;;;;;4402636;29;20071;-69
2021/11/19 04:40:09;;;;;;;22.88;11.38;;;9.60;68.30;;;;;;4403252;29;20062;-69
2021/11/19 04:42:25;;;;;;;19.13;10.98;;;9.60;68.50;;;;;;4402729;29;20058;-69
2021/11/19 04:44:46;;;;;;;21.25;11.70;;;9.60;68.60;;;;;;4402410;29;20097;-70
2021/11/19 04:47:04;;;;;;;21.38;11.38;;;9.60;68.70;;;;;;4402935;29;20050;-70
2021/11/19 04:49:21;;;;;;;20.50;12.63;;;9.50;68.70;;;;;;4403901;29;20090;-70
2021/11/19 04:51:40;;;;;;;20.60;12.13;;;9.50;69.50;;;;;;4404240;29;20071;-70
2021/11/19 04:53:57;;;;;;;21.27;11.80;;;9.50;68.60;;;;;;4402394;29;20119;-70
2021/11/19 04:56:14;;;;;;;20.23;11.30;;;9.50;68.80;;;;;;4402936;29;20112;-70
2021/11/19 04:58:31;;;;;;;22.70;11.43;;;9.40;68.90;;;;;;4402363;29;20085;-70
2021/11/19 05:00:52;;;;;;;20.17;11.68;;;9.40;68.90;;;;;;4404126;29;20099;-69
2021/11/19 05:03:13;;;;;;;20.77;11.60;;;9.40;69.80;;;;;;4402224;29;20450;-70
2021/11/19 05:05:30;;;;;;;22.15;11.30;;;9.40;69.00;;;;;;4402885;29;20191;-69
2021/11/19 05:07:46;;;;;;;20.92;11.07;;;9.30;69.00;;;;;;4402254;29;20131;-69
2021/11/19 05:10:04;;;;;;;19.15;10.23;;;9.30;69.20;;;;;;4402970;29;20054;-70
2021/11/19 05:12:25;;;;;;;19.65;10.38;;;9.30;69.20;;;;;;4402088;29;20139;-70
2021/11/19 05:14:44;;;;;;;20.92;11.63;;;9.30;69.20;;;;;;4402197;29;20047;-70
2021/11/19 05:17:05;;;;;;;19.30;10.73;;;9.30;69.20;;;;;;4401418;29;20082;-70
2021/11/19 05:19:23;;;;;;;21.30;10.95;;;9.20;69.10;;;;;;4402510;29;20128;-70
2021/11/19 05:21:40;;;;;;;21.42;11.38;;;9.20;69.20;;;;;;4402572;29;20047;-70
2021/11/19 05:23:57;;;;;;;17.58;10.27;;;9.20;69.30;;;;;;4402397;29;20066;-70
2021/11/19 05:26:14;;;;;;;18.30;10.70;;;9.20;69.40;;;;;;4418079;29;20082;-70
2021/11/19 05:28:31;;;;;;;19.88;10.50;;;9.20;69.30;;;;;;4402130;29;20051;-70
2021/11/19 05:30:53;;;;;;;18.48;10.27;;;9.20;69.30;;;;;;4403857;29;20062;-69
2021/11/19 05:33:15;;;;;;;20.23;10.18;;;9.20;69.40;;;;;;4402258;29;20423;-70
2021/11/19 05:35:33;;;;;;;15.63;9.45;;;9.20;69.40;;;;;;4402828;29;20494;-69
2021/11/19 05:37:49;;;;;;;17.00;9.35;;;9.20;70.20;;;;;;4402058;29;20051;-70
2021/11/19 05:40:10;;;;;;;15.82;9.90;;;9.20;69.30;;;;;;4402636;29;20141;-70
2021/11/19 05:42:27;;;;;;;19.38;9.57;;;9.20;69.30;;;;;;4402004;29;20058;-69
2021/11/19 05:44:44;;;;;;;15.88;9.13;;;9.30;69.50;;;;;;4402859;29;20137;-70
2021/11/19 05:47:24;;;;;;;18.67;9.55;;;9.30;69.50;;;;;;4402394;29;20077;-70
2021/11/19 05:49:52;;;;;;;19.85;10.00;;;9.30;69.50;;;;;;4402132;29;20057;-70
2021/11/19 05:52:10;;;;;;;17.05;9.70;;;9.30;69.40;;;;;;4402473;29;20103;-70
2021/11/19 05:54:30;;;;;;;16.70;9.80;;;9.40;70.10;;;;;;4402183;29;20483;-70
2021/11/19 05:56:47;;;;;;;17.70;9.18;;;9.40;69.40;;;;;;4419228;29;20057;-69
2021/11/19 05:59:05;;;;;;;17.63;9.60;;;9.40;69.30;;;;;;4405533;29;20051;-71
2021/11/19 06:01:41;;;;;;;16.92;9.00;;;9.40;69.30;;;;;;4406902;29;20050;-70
2021/11/19 06:03:59;;;;;;;15.38;9.35;;;9.40;69.30;;;;;;4404591;29;20059;-69
2021/11/19 06:06:31;;;;;;;16.60;9.18;;;9.50;69.30;;;;;;4406781;29;20050;-70
2021/11/19 06:08:58;;;;;;;17.33;9.50;;;9.50;69.20;;;;;;4404978;29;20051;-69
2021/11/19 06:11:17;;;;;;;16.23;9.50;;;9.50;69.20;;;;;;4405018;29;20129;-70
2021/11/19 06:13:40;;;;;;;18.40;10.35;;;9.50;69.20;;;;;;4405068;29;20065;-70
2021/11/19 06:16:01;;;;;;;105.75;54.35;;;9.50;69.20;;;;;;4406004;29;20050;-72
2021/11/19 06:18:24;;;;;;;18.98;9.98;;;9.50;69.20;;;;;;4406670;29;20479;-70
2021/11/19 06:20:43;;;;;;;15.60;9.18;;;9.60;69.20;;;;;;4403177;29;20050;-71
2021/11/19 06:23:12;;;;;;;19.15;9.43;;;9.60;69.20;;;;;;4404599;29;20480;-70
2021/11/19 06:25:31;;;;;;;15.70;9.27;;;9.60;69.10;;;;;;4402399;29;20057;-70
2021/11/19 06:27:49;;;;;;;15.77;8.98;;;9.60;69.00;;;;;;4403084;29;20423;-70
2021/11/19 06:30:11;;;;;;;16.40;9.10;;;9.60;69.00;;;;;;4402355;29;20130;-69
2021/11/19 06:32:28;;;;;;;16.38;9.00;;;9.60;69.00;;;;;;4402767;29;20054;-70
2021/11/19 06:34:48;;;;;;;17.20;8.70;;;9.60;69.00;;;;;;4402481;29;20077;-69
2021/11/19 06:37:07;;;;;;;18.40;9.68;;;9.60;69.10;;;;;;4402555;29;20074;-70
2021/11/19 06:39:41;;;;;;;16.52;9.35;;;9.60;69.00;;;;;;4404484;29;20134;-70
2021/11/19 06:42:08;;;;;;;13.27;8.15;;;9.60;69.10;;;;;;4404303;29;20115;-70
2021/11/19 06:44:45;;;;;;;17.45;8.43;;;9.60;69.20;;;;;;4406143;29;20473;-70
2021/11/19 06:47:18;;;;;;;14.13;8.55;;;9.70;70.00;;;;;;4404086;29;20081;-69
2021/11/19 06:50:05;;;;;;;20.30;9.30;;;9.70;69.20;;;;;;4401244;29;20465;-69
2021/11/19 06:52:45;;;;;;;15.60;9.35;;;9.70;69.10;;;;;;4405618;29;20455;-70
2021/11/19 06:55:21;;;;;;;16.67;8.50;;;9.70;69.20;;;;;;4403747;29;20078;-70
2021/11/19 06:58:10;;;;;;;17.20;9.15;;;9.70;69.20;;;;;;4390904;29;20188;-69
2021/11/19 07:00:31;;;;;;;13.82;8.13;;;9.70;69.20;;;;;;4402311;29;20050;-69
2021/11/19 07:02:48;;;;;;;17.90;8.57;;;9.80;69.30;;;;;;4402685;29;20050;-70
2021/11/19 07:05:05;;;;;;;15.50;7.78;;;9.80;69.30;;;;;;4402124;29;20135;-69
2021/11/19 07:07:22;;;;;;;13.52;7.65;;;9.80;69.40;;;;;;4402382;29;20082;-69
2021/11/19 07:09:39;;;;;;;13.82;8.02;;;9.80;69.40;;;;;;4402364;29;20138;-69
2021/11/19 07:12:00;;;;;;;13.95;7.78;;;9.90;69.40;;;;;;4402303;29;20100;-69
2021/11/19 07:14:22;;;;;;;12.77;7.53;;;9.90;69.40;;;;;;4402737;29;20054;-70
2021/11/19 07:16:39;;;;;;;13.20;7.75;;;10.00;69.40;;;;;;4403955;29;20063;-70
2021/11/19 07:18:57;;;;;;;13.63;8.00;;;10.00;69.30;;;;;;4402778;29;20507;-69
2021/11/19 07:21:15;;;;;;;15.48;7.80;;;10.00;69.30;;;;;;4402393;29;20050;-70
2021/11/19 07:23:32;;;;;;;11.90;6.90;;;10.10;69.30;;;;;;4402475;29;20070;-69
2021/11/19 07:25:49;;;;;;;15.20;7.47;;;10.10;69.30;;;;;;4402864;29;20463;-69
2021/11/19 07:28:08;;;;;;;13.75;7.25;;;10.10;69.40;;;;;;4403985;29;20126;-69
2021/11/19 07:30:31;;;;;;;12.25;7.22;;;10.20;69.40;;;;;;4403378;29;20421;-69
2021/11/19 07:33:07;;;;;;;11.70;7.03;;;10.30;69.40;;;;;;4405251;29;20465;-69
2021/11/19 07:35:50;;;;;;;13.27;7.07;;;10.30;69.30;;;;;;4403793;29;20145;-70
2021/11/19 07:38:14;;;;;;;12.45;7.63;;;10.30;69.30;;;;;;4403571;29;20104;-70
2021/11/19 07:40:57;;;;;;;12.05;6.95;;;10.40;69.20;;;;;;4398569;29;20070;-70
2021/11/19 07:43:23;;;;;;;11.40;7.20;;;10.40;69.20;;;;;;4403238;29;20079;-70
2021/11/19 07:46:03;;;;;;;11.63;6.93;;;10.40;69.20;;;;;;4403934;29;20061;-69
2021/11/19 07:48:37;;;;;;;13.32;6.82;;;10.40;69.10;;;;;;4403627;29;20074;-70
2021/11/19 07:50:55;;;;;;;12.85;7.18;;;10.50;69.10;;;;;;4403560;29;20074;-70
2021/11/19 07:53:16;;;;;;;11.75;7.70;;;10.50;69.00;;;;;;4404919;29;20058;-69
2021/11/19 07:55:33;;;;;;;14.27;8.77;;;10.60;69.10;;;;;;4388397;29;20522;-69
2021/11/19 07:57:49;;;;;;;13.15;7.05;;;10.60;69.00;;;;;;4403772;29;20051;-68
2021/11/19 08:00:11;;;;;;;12.90;7.03;;;10.70;68.90;;;;;;4403086;29;20058;-69
2021/11/19 08:02:33;;;;;;;16.08;8.52;;;10.70;68.80;;;;;;4405373;29;20081;-68
2021/11/19 08:04:50;;;;;;;12.77;7.50;;;10.70;68.80;;;;;;4402617;29;20067;-70
2021/11/19 08:07:13;;;;;;;12.90;7.50;;;10.80;68.70;;;;;;4403725;29;20050;-70
2021/11/19 08:09:30;;;;;;;11.27;6.70;;;10.80;68.60;;;;;;4404095;29;20109;-71
2021/11/19 08:11:56;;;;;;;11.38;6.68;;;10.90;68.40;;;;;;4403588;29;20082;-70
2021/11/19 08:14:13;;;;;;;11.75;7.47;;;10.90;68.40;;;;;;4402728;29;20051;-69
2021/11/19 08:16:38;;;;;;;13.27;8.00;;;10.90;68.20;;;;;;4403285;29;20577;-69
2021/11/19 08:19:16;;;;;;;14.00;8.05;;;11.00;68.20;;;;;;4402702;29;20058;-70
2021/11/19 08:21:33;;;;;;;14.82;7.82;;;11.00;68.00;;;;;;4402799;29;20396;-69
2021/11/19 08:23:52;;;;;;;12.85;7.68;;;11.00;67.80;;;;;;4403144;29;20108;-70
2021/11/19 08:26:12;;;;;;;13.63;7.30;;;11.00;67.50;;;;;;4402873;29;20058;-69
2021/11/19 08:28:30;;;;;;;14.90;8.55;;;11.10;67.70;;;;;;4404186;29;20050;-68
2021/11/19 08:30:50;;;;;;;14.68;7.32;;;11.10;67.60;;;;;;4403766;29;20050;-69
2021/11/19 08:33:09;;;;;;;12.30;7.88;;;11.20;67.40;;;;;;4404864;29;20403;-69
2021/11/19 08:35:29;;;;;;;12.35;7.07;;;11.30;67.40;;;;;;4403759;29;20074;-70
2021/11/19 08:37:49;;;;;;;11.52;7.07;;;11.30;67.20;;;;;;4403143;29;20050;-69
2021/11/19 08:40:08;;;;;;;12.38;7.28;;;11.40;66.90;;;;;;4403833;29;20506;-71
2021/11/19 08:42:27;;;;;;;11.38;6.82;;;11.40;66.70;;;;;;4403192;29;20071;-70
2021/11/19 08:44:45;;;;;;;12.98;7.28;;;11.40;66.70;;;;;;4403683;29;20055;-69
2021/11/19 08:47:24;;;;;;;13.02;7.75;;;11.40;66.70;;;;;;4402656;29;20059;-70
2021/11/19 08:49:44;;;;;;;12.55;7.25;;;11.50;66.80;;;;;;4403901;29;20078;-69
2021/11/19 08:52:01;;;;;;;10.73;7.07;;;11.50;66.80;;;;;;4402290;29;20093;-69
2021/11/19 08:54:18;;;;;;;13.38;7.13;;;11.50;66.80;;;;;;4404244;29;20045;-69
2021/11/19 08:56:36;;;;;;;13.02;7.35;;;11.50;67.40;;;;;;4403501;29;20081;-70
2021/11/19 08:58:53;;;;;;;17.15;7.50;;;11.50;66.60;;;;;;4404151;29;20464;-70
2021/11/19 09:01:11;;;;;;;14.57;8.02;;;11.50;66.60;;;;;;4402192;29;20111;-68
2021/11/19 09:03:29;;;;;;;14.88;8.05;;;11.50;66.60;;;;;;4403111;29;20158;-69
2021/11/19 09:05:48;;;;;;;13.20;8.55;;;11.60;66.70;;;;;;4403230;29;20061;-68
2021/11/19 09:08:08;;;;;;;13.88;7.88;;;11.60;66.60;;;;;;4404181;29;20126;-69
2021/11/19 09:10:25;;;;;;;13.32;7.80;;;11.60;66.60;;;;;;4402257;29;20097;-68
2021/11/19 09:12:42;;;;;;;14.32;7.85;;;11.60;66.70;;;;;;4404109;29;20084;-70
2021/11/19 09:14:59;;;;;;;15.15;8.68;;;11.70;66.70;;;;;;4402639;29;20122;-68
2021/11/19 09:17:43;;;;;;;16.02;8.43;;;11.80;66.60;;;;;;4403874;29;20074;-68
2021/11/19 09:20:03;;;;;;;13.02;7.70;;;11.80;66.40;;;;;;4403905;29;20051;-67
2021/11/19 09:22:29;;;;;;;15.10;7.47;;;11.90;66.40;;;;;;4403394;29;20078;-67
2021/11/19 09:24:45;;;;;;;11.95;7.53;;;11.90;66.30;;;;;;4404068;29;20053;-67
2021/11/19 09:27:11;;;;;;;17.70;9.10;;;12.00;66.20;;;;;;4402037;29;20325;-67
2021/11/19 09:29:30;;;;;;;13.18;7.70;;;12.00;66.00;;;;;;4402962;29;20131;-66
2021/11/19 09:31:48;;;;;;;17.08;7.85;;;11.90;66.10;;;;;;4406287;29;20078;-67
2021/11/19 09:34:06;;;;;;;16.27;8.30;;;11.90;66.20;;;;;;4406087;29;20051;-68
2021/11/19 09:36:22;;;;;;;15.93;8.07;;;12.00;66.20;;;;;;4406005;29;20062;-65
2021/11/19 09:38:40;;;;;;;13.50;7.57;;;12.10;66.30;;;;;;4407143;29;20057;-66
2021/11/19 09:41:13;;;;;;;16.90;8.77;;;12.10;66.00;;;;;;4405358;29;20073;-69
2021/11/19 09:43:37;;;;;;;16.25;7.40;;;12.20;65.80;;;;;;4405551;29;20082;-67
2021/11/19 09:46:28;;;;;;;12.95;8.45;;;12.30;66.60;;;;;;4406858;29;20482;-67
2021/11/19 09:49:07;;;;;;;20.42;8.02;;;12.40;65.60;;;;;;4406226;29;20089;-67
2021/11/19 09:51:57;;;;;;;16.77;7.93;;;12.50;65.50;;;;;;4405880;29;20051;-66
2021/11/19 09:55:08;;;;;;;20.58;9.98;;;12.50;65.40;;;;;;4406625;29;20074;-68
2021/11/19 09:58:19;;;;;;;29.52;15.32;;;12.60;64.80;;;;;;4404737;29;20134;-67
2021/11/19 10:01:03;;;;;;;20.40;11.23;;;12.60;64.90;;;;;;4380259;29;20074;-68
2021/11/19 10:03:52;;;;;;;15.38;8.43;;;12.70;64.90;;;;;;4418057;29;20123;-66
2021/11/19 10:06:15;;;;;;;16.40;8.30;;;12.70;64.80;;;;;;4404577;29;20074;-68
2021/11/19 10:08:54;;;;;;;13.57;8.13;;;12.70;64.70;;;;;;4405324;29;20058;-68
2021/11/19 10:11:19;;;;;;;15.48;8.30;;;12.80;65.20;;;;;;4406233;29;20047;-68
2021/11/19 10:13:43;;;;;;;;;;;12.80;64.90;;;;;;4405526;29;20051;-67
2021/11/19 10:16:10;;;;;;;15.50;9.43;;;12.80;65.00;;;;;;4405304;29;19932;-68
2021/11/19 10:18:33;;;;;;;17.83;8.60;;;12.90;64.30;;;;;;4406445;29;20705;-68
2021/11/19 10:20:52;;;;;;;20.42;9.57;;;12.90;64.60;;;;;;4405315;29;20057;-68
2021/11/19 10:23:12;;;;;;;15.30;9.57;;;13.00;64.60;;;;;;4404612;29;20050;-68
2021/11/19 10:25:46;;;;;;;14.73;8.68;;;13.00;64.40;;;;;;4406365;29;20088;-67
2021/11/19 10:28:06;;;;;;;14.13;9.10;;;13.00;64.40;;;;;;4405464;29;20059;-66
2021/11/19 10:30:32;;;;;;;14.85;8.80;;;13.10;64.40;;;;;;4405263;29;20111;-68
2021/11/19 10:32:51;;;;;;;;;;;13.10;64.10;;;;;;4404856;29;20123;-67
2021/11/19 10:35:34;;;;;;;13.10;8.38;;;13.10;64.00;;;;;;4406432;29;19925;-68
2021/11/19 10:38:20;;;;;;;14.95;8.40;;;13.20;64.10;;;;;;4406164;29;20070;-68
2021/11/19 10:41:18;;;;;;;14.48;9.18;;;13.20;63.80;;;;;;4405522;29;20125;-68
2021/11/19 10:43:53;;;;;;;14.38;8.15;;;13.30;63.70;;;;;;4354503;30;20110;-68
2021/11/19 10:46:25;;;;;;;13.82;8.30;;;13.20;63.80;;;;;;4354134;30;20415;-68
2021/11/19 10:49:42;;;;;;;15.80;8.35;;;13.20;63.80;;;;;;4383127;29;20510;-68
2021/11/19 10:52:45;;;;;;;14.98;8.88;;;13.20;63.80;;;;;;4405154;29;20047;-67
2021/11/19 10:55:26;;;;;;;12.30;8.05;;;13.20;64.00;;;;;;4405939;29;20074;-68
2021/11/19 10:58:23;;;;;;;12.50;8.00;;;13.10;64.10;;;;;;4404060;29;20063;-68
2021/11/19 11:00:49;;;;;;;20.75;10.80;;;13.20;64.20;;;;;;4405158;29;20082;-67
2021/11/19 11:03:12;;;;;;;29.30;16.13;;;13.20;64.10;;;;;;4403828;29;20051;-68
2021/11/19 11:05:35;;;;;;;50.10;25.77;;;13.20;64.10;;;;;;4405419;29;20142;-68
2021/11/19 11:08:04;;;;;;;;;;;13.30;64.10;;;;;;4404762;29;20070;-67
2021/11/19 11:10:31;;;;;;;21.30;11.25;;;13.30;63.20;;;;;;4405139;29;19929;-68
2021/11/19 11:12:52;;;;;;;12.57;8.27;;;13.30;64.00;;;;;;4404697;29;20050;-68
2021/11/19 11:15:23;;;;;;;13.57;8.23;;;13.30;63.80;;;;;;4404966;29;20555;-68
2021/11/19 11:17:53;;;;;;;13.27;7.70;;;13.30;63.90;;;;;;4405699;29;20062;-68
2021/11/19 11:20:22;;;;;;;12.70;7.82;;;13.40;63.90;;;;;;4404500;29;20081;-67
2021/11/19 11:22:55;;;;;;;13.40;8.05;;;13.40;63.80;;;;;;4405486;29;20098;-68
2021/11/19 11:25:22;;;;;;;12.98;7.57;;;13.50;63.50;;;;;;4405021;29;20057;-66
2021/11/19 11:28:03;;;;;;;12.77;6.85;;;13.50;63.50;;;;;;4403491;29;20096;-68
2021/11/19 11:30:28;;;;;;;13.80;7.50;;;13.60;63.30;;;;;;4419371;29;20081;-68
2021/11/19 11:33:00;;;;;;;12.30;7.03;;;13.60;63.30;;;;;;4405159;29;20054;-68
2021/11/19 11:35:29;;;;;;;14.48;7.18;;;13.70;63.30;;;;;;4404361;29;20055;-68
2021/11/19 11:37:58;;;;;;;12.13;7.18;;;13.70;63.10;;;;;;4404437;29;20078;-68
2021/11/19 11:40:20;;;;;;;11.45;6.95;;;13.70;63.00;;;;;;4405055;29;20126;-68
2021/11/19 11:42:40;;;;;;;14.85;6.55;;;13.70;62.80;;;;;;4404833;29;20051;-68
2021/11/19 11:44:59;;;;;;;11.50;7.03;;;13.80;62.80;;;;;;4403469;29;20077;-67
2021/11/19 11:47:36;;;;;;;13.15;7.00;;;13.70;62.80;;;;;;4405031;29;20070;-69
2021/11/19 11:49:57;;;;;;;12.83;7.03;;;13.70;62.60;;;;;;4403145;29;20055;-69
2021/11/19 11:52:26;;;;;;;11.07;6.63;;;13.70;62.90;;;;;;4405007;29;20054;-68
2021/11/19 11:54:57;;;;;;;11.90;7.25;;;13.80;62.90;;;;;;4403963;29;20078;-69
2021/11/19 11:57:44;;;;;;;11.45;7.45;;;13.80;62.60;;;;;;4404779;29;20570;-66
2021/11/19 12:00:07;;;;;;;11.40;6.97;;;13.70;62.50;;;;;;4404715;29;20070;-68
2021/11/19 12:02:49;;;;;;;12.95;7.10;;;13.70;62.70;;;;;;4404254;29;20058;-68
2021/11/19 12:05:38;;;;;;;15.48;7.60;;;13.80;62.50;;;;;;4398035;29;20086;-67
2021/11/19 12:07:57;;;;;;;;;;;13.80;62.40;;;;;;4404346;29;20691;-67
2021/11/19 12:10:28;;;;;;;12.65;7.32;;;13.70;62.50;;;;;;4404878;29;19972;-67
2021/11/19 12:12:56;;;;;;;12.82;8.05;;;13.60;62.70;;;;;;4403019;29;20414;-67
2021/11/19 12:15:19;;;;;;;15.65;9.60;;;13.60;62.80;;;;;;4404476;29;20533;-66
2021/11/19 12:17:47;;;;;;;13.75;7.80;;;13.50;63.00;;;;;;4403453;29;20089;-67
2021/11/19 12:20:12;;;;;;;13.75;7.97;;;13.50;63.10;;;;;;4402704;29;20046;-67
2021/11/19 12:22:37;;;;;;;13.45;8.57;;;13.50;63.20;;;;;;4403404;29;20055;-67
2021/11/19 12:25:02;;;;;;;13.80;7.50;;;13.40;63.20;;;;;;4402333;29;20103;-68